Northfield, CT (06778)

1:49 AM EDT on April 28, 2017 (GMT -0400)
Reynolds Bridge | | Change Station

Elev 410 ft 41.66 °N, 73.09 °W | Updated 5 minutes ago

Fog
Fog
56.7 °F
Feels Like 56.7 °F
N
0.0
Wind Variable Wind from NNE

Today
High -- | Low -- °F
--% Chance of Precip.
Yesterday
High -- | Low -- °F
Precip. -- in
Pressure 29.91 in
Visibility 0.2 miles
Clouds Overcast 200 ft
Dew Point 56 °F
Humidity 98%
Rainfall 0.00 in
Snow Depth Not available.
5:52 AM 7:47 PM
Waxing Crescent, 5% visible
METAR KOXC 280535Z AUTO 17005KT M1/4SM OVC002 14/12 A2991 RMK AO1
Pressure 29.91 in
Visibility 0.2 miles
Clouds Overcast 200 ft
Dew Point 56 °F
Humidity 98%
Rainfall 0.00 in
Snow Depth Not available.
5:52 AM 7:47 PM
Waxing Crescent, 5% visible
METAR KOXC 280535Z AUTO 17005KT M1/4SM OVC002 14/12 A2991 RMK AO1

Get Severe Weather Alerts

Thanks for signing up!

Be on the lookout for a verification email in your inbox.

You'll start receiving the daily forecast at 8 AM.

×

10-Day Weather Forecast

Almanac

Astronomy

Apr. 28, 2017 Rise Set
Actual Time
Civil Twilight
Nautical Twilight
Astronomical Twilight
Moon
Length of Visible Light
Length of Day
Tomorrow will be .
, % of the Moon is Illuminated

Today's Extremes

State Highs State Lows

Community

WunderPhotos

WunderBlog® & News

Nearby

Air Quality

  Air Quality AQ Index Pollutant
Not available.

Snow Depth

Station Depth Elevation

Earthquake Activity

City Distance Mag. Time & Date
Minimum magnitude displayed is 2.5.

Coastal Water Temperatures

Place Temperature

Stations

Nearby Weather Stations

Station Location Temp. Windchill Dew Point Humidity Wind Precip. Elev Updated Type
                   

Watches & Warnings

There are currently no watches in effect.